sensor_id;sensor_type;location;lat;lon;timestamp;temperature;humidity
31038;DHT22;17702;47.590;7.666;2022-10-17T00:01:10;18.10;95.70
31038;DHT22;17702;47.590;7.666;2022-10-17T00:03:36;18.10;95.70
31038;DHT22;17702;47.590;7.666;2022-10-17T00:06:09;18.00;95.70
31038;DHT22;17702;47.590;7.666;2022-10-17T00:08:36;18.10;96.10
31038;DHT22;17702;47.590;7.666;2022-10-17T00:11:11;18.10;95.80
31038;DHT22;17702;47.590;7.666;2022-10-17T00:13:37;18.10;95.70
31038;DHT22;17702;47.590;7.666;2022-10-17T00:16:04;18.10;95.60
31038;DHT22;17702;47.590;7.666;2022-10-17T00:18:29;18.10;95.50
31038;DHT22;17702;47.590;7.666;2022-10-17T00:20:55;18.10;95.80
31038;DHT22;17702;47.590;7.666;2022-10-17T00:23:20;18.10;95.80
31038;DHT22;17702;47.590;7.666;2022-10-17T00:25:46;18.00;95.70
31038;DHT22;17702;47.590;7.666;2022-10-17T00:28:12;18.10;95.90
31038;DHT22;17702;47.590;7.666;2022-10-17T00:30:37;18.10;95.80
31038;DHT22;17702;47.590;7.666;2022-10-17T00:33:03;18.00;95.90
31038;DHT22;17702;47.590;7.666;2022-10-17T00:35:29;18.00;95.80
31038;DHT22;17702;47.590;7.666;2022-10-17T00:37:55;18.00;95.80
31038;DHT22;17702;47.590;7.666;2022-10-17T00:40:20;18.00;95.90
31038;DHT22;17702;47.590;7.666;2022-10-17T00:42:46;18.00;96.20
31038;DHT22;17702;47.590;7.666;2022-10-17T00:47:47;17.90;96.00
31038;DHT22;17702;47.590;7.666;2022-10-17T00:50:14;17.80;96.10
31038;DHT22;17702;47.590;7.666;2022-10-17T00:52:39;17.80;96.20
31038;DHT22;17702;47.590;7.666;2022-10-17T00:55:10;17.70;96.40
31038;DHT22;17702;47.590;7.666;2022-10-17T00:57:36;17.70;96.50
31038;DHT22;17702;47.590;7.666;2022-10-17T01:00:04;17.70;96.70
31038;DHT22;17702;47.590;7.666;2022-10-17T01:02:30;17.70;96.60
31038;DHT22;17702;47.590;7.666;2022-10-17T01:04:56;17.60;96.90
31038;DHT22;17702;47.590;7.666;2022-10-17T01:07:24;17.60;96.70
31038;DHT22;17702;47.590;7.666;2022-10-17T01:09:49;17.60;96.70
31038;DHT22;17702;47.590;7.666;2022-10-17T01:12:25;17.60;96.90
31038;DHT22;17702;47.590;7.666;2022-10-17T01:15:02;17.60;96.80
31038;DHT22;17702;47.590;7.666;2022-10-17T01:22:46;17.60;96.80
31038;DHT22;17702;47.590;7.666;2022-10-17T01:28:13;17.50;96.90
31038;DHT22;17702;47.590;7.666;2022-10-17T01:38:20;17.40;97.10
31038;DHT22;17702;47.590;7.666;2022-10-17T01:40:48;17.40;97.00
31038;DHT22;17702;47.590;7.666;2022-10-17T01:45:45;17.40;97.20
31038;DHT22;17702;47.590;7.666;2022-10-17T01:48:15;17.40;97.30
31038;DHT22;17702;47.590;7.666;2022-10-17T01:50:42;17.40;97.30
31038;DHT22;17702;47.590;7.666;2022-10-17T01:53:11;17.40;97.00
31038;DHT22;17702;47.590;7.666;2022-10-17T01:55:39;17.30;97.20
31038;DHT22;17702;47.590;7.666;2022-10-17T01:58:10;17.30;97.10
31038;DHT22;17702;47.590;7.666;2022-10-17T02:00:36;17.30;97.10
31038;DHT22;17702;47.590;7.666;2022-10-17T02:03:05;17.30;97.30
31038;DHT22;17702;47.590;7.666;2022-10-17T02:05:37;17.30;97.40
31038;DHT22;17702;47.590;7.666;2022-10-17T02:08:04;17.30;97.40
31038;DHT22;17702;47.590;7.666;2022-10-17T02:13:23;17.30;97.50
31038;DHT22;17702;47.590;7.666;2022-10-17T02:21:09;17.20;97.50
31038;DHT22;17702;47.590;7.666;2022-10-17T02:26:08;17.20;97.60
31038;DHT22;17702;47.590;7.666;2022-10-17T02:31:01;17.10;97.60
31038;DHT22;17702;47.590;7.666;2022-10-17T02:33:34;17.10;97.60
31038;DHT22;17702;47.590;7.666;2022-10-17T02:36:02;17.10;97.80
31038;DHT22;17702;47.590;7.666;2022-10-17T02:38:28;17.10;97.80
31038;DHT22;17702;47.590;7.666;2022-10-17T02:40:54;17.10;97.90
31038;DHT22;17702;47.590;7.666;2022-10-17T02:43:20;17.10;97.60
31038;DHT22;17702;47.590;7.666;2022-10-17T02:45:46;17.10;97.70
31038;DHT22;17702;47.590;7.666;2022-10-17T02:53:29;17.00;97.80
31038;DHT22;17702;47.590;7.666;2022-10-17T02:55:58;17.00;97.90
31038;DHT22;17702;47.590;7.666;2022-10-17T02:58:27;17.00;97.80
31038;DHT22;17702;47.590;7.666;2022-10-17T03:00:54;17.10;97.80
31038;DHT22;17702;47.590;7.666;2022-10-17T03:03:23;17.00;97.90
31038;DHT22;17702;47.590;7.666;2022-10-17T03:05:49;17.00;97.90
31038;DHT22;17702;47.590;7.666;2022-10-17T03:08:16;17.00;97.90
31038;DHT22;17702;47.590;7.666;2022-10-17T03:10:42;16.90;98.00
31038;DHT22;17702;47.590;7.666;2022-10-17T03:13:07;17.00;97.80
31038;DHT22;17702;47.590;7.666;2022-10-17T03:15:33;16.90;97.90
31038;DHT22;17702;47.590;7.666;2022-10-17T03:17:58;16.90;98.00
31038;DHT22;17702;47.590;7.666;2022-10-17T03:20:24;16.90;98.10
31038;DHT22;17702;47.590;7.666;2022-10-17T03:22:49;16.90;98.00
31038;DHT22;17702;47.590;7.666;2022-10-17T03:25:14;16.90;98.00
31038;DHT22;17702;47.590;7.666;2022-10-17T03:27:40;16.90;98.00
31038;DHT22;17702;47.590;7.666;2022-10-17T03:30:06;16.80;98.10
31038;DHT22;17702;47.590;7.666;2022-10-17T03:32:32;16.80;98.00
31038;DHT22;17702;47.590;7.666;2022-10-17T03:34:57;16.80;98.20
31038;DHT22;17702;47.590;7.666;2022-10-17T03:37:23;16.80;98.20
31038;DHT22;17702;47.590;7.666;2022-10-17T03:39:48;16.70;98.40
31038;DHT22;17702;47.590;7.666;2022-10-17T03:42:14;16.70;98.20
31038;DHT22;17702;47.590;7.666;2022-10-17T03:44:39;16.70;98.50
31038;DHT22;17702;47.590;7.666;2022-10-17T03:47:05;16.70;98.50
31038;DHT22;17702;47.590;7.666;2022-10-17T03:49:30;16.70;98.30
31038;DHT22;17702;47.590;7.666;2022-10-17T03:51:56;16.70;98.30
31038;DHT22;17702;47.590;7.666;2022-10-17T03:54:21;16.70;98.20
31038;DHT22;17702;47.590;7.666;2022-10-17T03:56:47;16.70;98.30
31038;DHT22;17702;47.590;7.666;2022-10-17T03:59:12;16.70;98.50
31038;DHT22;17702;47.590;7.666;2022-10-17T04:01:38;16.60;98.30
31038;DHT22;17702;47.590;7.666;2022-10-17T04:04:04;16.60;98.50
31038;DHT22;17702;47.590;7.666;2022-10-17T04:06:29;16.60;98.60
31038;DHT22;17702;47.590;7.666;2022-10-17T04:08:55;16.60;98.80
31038;DHT22;17702;47.590;7.666;2022-10-17T04:11:21;16.50;98.70
31038;DHT22;17702;47.590;7.666;2022-10-17T04:13:47;16.50;98.70
31038;DHT22;17702;47.590;7.666;2022-10-17T04:16:13;16.50;98.70
31038;DHT22;17702;47.590;7.666;2022-10-17T04:18:40;16.50;98.90
31038;DHT22;17702;47.590;7.666;2022-10-17T04:21:05;16.50;98.70
31038;DHT22;17702;47.590;7.666;2022-10-17T04:23:31;16.50;98.70
31038;DHT22;17702;47.590;7.666;2022-10-17T04:25:57;16.50;98.70
31038;DHT22;17702;47.590;7.666;2022-10-17T04:28:23;16.50;98.60
31038;DHT22;17702;47.590;7.666;2022-10-17T04:30:59;16.50;98.40
31038;DHT22;17702;47.590;7.666;2022-10-17T04:33:25;16.50;98.40
31038;DHT22;17702;47.590;7.666;2022-10-17T04:35:54;16.50;98.50
31038;DHT22;17702;47.590;7.666;2022-10-17T04:38:20;16.40;98.50
31038;DHT22;17702;47.590;7.666;2022-10-17T04:40:45;16.40;98.50
31038;DHT22;17702;47.590;7.666;2022-10-17T04:43:11;16.40;98.50
31038;DHT22;17702;47.590;7.666;2022-10-17T04:45:36;16.40;98.60
31038;DHT22;17702;47.590;7.666;2022-10-17T04:48:02;16.30;98.70
31038;DHT22;17702;47.590;7.666;2022-10-17T04:50:27;16.40;98.60
31038;DHT22;17702;47.590;7.666;2022-10-17T04:52:53;16.40;98.80
31038;DHT22;17702;47.590;7.666;2022-10-17T04:55:18;16.40;98.60
31038;DHT22;17702;47.590;7.666;2022-10-17T04:57:44;16.40;98.70
31038;DHT22;17702;47.590;7.666;2022-10-17T05:00:09;16.40;98.80
31038;DHT22;17702;47.590;7.666;2022-10-17T05:02:35;16.40;98.60
31038;DHT22;17702;47.590;7.666;2022-10-17T05:05:00;16.40;98.60
31038;DHT22;17702;47.590;7.666;2022-10-17T05:07:26;16.40;98.50
31038;DHT22;17702;47.590;7.666;2022-10-17T05:09:51;16.40;98.50
31038;DHT22;17702;47.590;7.666;2022-10-17T05:12:17;16.40;98.60
31038;DHT22;17702;47.590;7.666;2022-10-17T05:14:42;16.40;98.80
31038;DHT22;17702;47.590;7.666;2022-10-17T05:17:08;16.40;98.80
31038;DHT22;17702;47.590;7.666;2022-10-17T05:19:33;16.40;98.70
31038;DHT22;17702;47.590;7.666;2022-10-17T05:21:59;16.40;98.80
31038;DHT22;17702;47.590;7.666;2022-10-17T05:24:24;16.40;98.90
31038;DHT22;17702;47.590;7.666;2022-10-17T05:26:50;16.40;98.90
31038;DHT22;17702;47.590;7.666;2022-10-17T05:29:16;16.40;98.80
31038;DHT22;17702;47.590;7.666;2022-10-17T05:31:41;16.50;98.80
31038;DHT22;17702;47.590;7.666;2022-10-17T05:34:07;16.50;98.90
31038;DHT22;17702;47.590;7.666;2022-10-17T05:36:33;16.50;98.90
31038;DHT22;17702;47.590;7.666;2022-10-17T05:38:59;16.50;99.00
31038;DHT22;17702;47.590;7.666;2022-10-17T05:41:24;16.50;98.90
31038;DHT22;17702;47.590;7.666;2022-10-17T05:43:50;16.50;98.90
31038;DHT22;17702;47.590;7.666;2022-10-17T05:46:15;16.50;98.80
31038;DHT22;17702;47.590;7.666;2022-10-17T05:48:41;16.50;99.00
31038;DHT22;17702;47.590;7.666;2022-10-17T05:51:07;16.50;99.00
31038;DHT22;17702;47.590;7.666;2022-10-17T05:53:33;16.50;99.00
31038;DHT22;17702;47.590;7.666;2022-10-17T05:56:00;16.50;98.90
31038;DHT22;17702;47.590;7.666;2022-10-17T05:58:26;16.60;98.90
31038;DHT22;17702;47.590;7.666;2022-10-17T06:00:56;16.60;98.90
31038;DHT22;17702;47.590;7.666;2022-10-17T06:03:21;16.60;98.80
31038;DHT22;17702;47.590;7.666;2022-10-17T06:05:46;16.60;98.80
31038;DHT22;17702;47.590;7.666;2022-10-17T06:08:12;16.60;98.80
31038;DHT22;17702;47.590;7.666;2022-10-17T06:10:38;16.60;98.70
31038;DHT22;17702;47.590;7.666;2022-10-17T06:13:03;16.60;98.60
31038;DHT22;17702;47.590;7.666;2022-10-17T06:15:29;16.70;98.50
31038;DHT22;17702;47.590;7.666;2022-10-17T06:17:54;16.60;98.70
31038;DHT22;17702;47.590;7.666;2022-10-17T06:20:20;16.60;98.80
31038;DHT22;17702;47.590;7.666;2022-10-17T06:22:45;16.60;98.80
31038;DHT22;17702;47.590;7.666;2022-10-17T06:25:10;16.60;98.60
31038;DHT22;17702;47.590;7.666;2022-10-17T06:27:36;16.60;98.70
31038;DHT22;17702;47.590;7.666;2022-10-17T06:30:01;16.60;98.90
31038;DHT22;17702;47.590;7.666;2022-10-17T06:32:28;16.60;98.70
31038;DHT22;17702;47.590;7.666;2022-10-17T06:34:53;16.60;98.70
31038;DHT22;17702;47.590;7.666;2022-10-17T06:37:19;16.70;98.60
31038;DHT22;17702;47.590;7.666;2022-10-17T06:39:44;17.20;99.90
31038;DHT22;17702;47.590;7.666;2022-10-17T06:42:10;17.30;99.90
31038;DHT22;17702;47.590;7.666;2022-10-17T06:44:35;17.30;99.30
31038;DHT22;17702;47.590;7.666;2022-10-17T06:47:01;17.30;99.90
31038;DHT22;17702;47.590;7.666;2022-10-17T06:49:26;17.40;98.60
31038;DHT22;17702;47.590;7.666;2022-10-17T06:51:52;17.40;98.10
31038;DHT22;17702;47.590;7.666;2022-10-17T06:54:18;17.30;98.20
31038;DHT22;17702;47.590;7.666;2022-10-17T06:56:43;17.10;98.40
31038;DHT22;17702;47.590;7.666;2022-10-17T06:59:09;17.00;98.40
31038;DHT22;17702;47.590;7.666;2022-10-17T07:01:34;17.00;98.60
31038;DHT22;17702;47.590;7.666;2022-10-17T07:04:00;16.90;98.60
31038;DHT22;17702;47.590;7.666;2022-10-17T07:06:25;16.90;98.50
31038;DHT22;17702;47.590;7.666;2022-10-17T07:08:51;16.90;98.70
31038;DHT22;17702;47.590;7.666;2022-10-17T07:11:19;16.90;98.70
31038;DHT22;17702;47.590;7.666;2022-10-17T07:13:45;16.90;98.80
31038;DHT22;17702;47.590;7.666;2022-10-17T07:16:11;16.90;98.60
31038;DHT22;17702;47.590;7.666;2022-10-17T07:18:36;16.90;98.60
31038;DHT22;17702;47.590;7.666;2022-10-17T07:21:03;16.90;98.70
31038;DHT22;17702;47.590;7.666;2022-10-17T07:23:28;16.90;98.60
31038;DHT22;17702;47.590;7.666;2022-10-17T07:26:00;17.00;98.60
31038;DHT22;17702;47.590;7.666;2022-10-17T07:28:26;17.10;98.60
31038;DHT22;17702;47.590;7.666;2022-10-17T07:30:53;17.10;98.30
31038;DHT22;17702;47.590;7.666;2022-10-17T07:33:18;17.20;98.30
31038;DHT22;17702;47.590;7.666;2022-10-17T07:35:44;17.30;98.30
31038;DHT22;17702;47.590;7.666;2022-10-17T07:38:09;17.40;98.20
31038;DHT22;17702;47.590;7.666;2022-10-17T07:40:35;17.50;97.80
31038;DHT22;17702;47.590;7.666;2022-10-17T07:43:00;17.60;97.80
31038;DHT22;17702;47.590;7.666;2022-10-17T07:45:26;17.70;97.50
31038;DHT22;17702;47.590;7.666;2022-10-17T07:47:58;17.80;97.50
31038;DHT22;17702;47.590;7.666;2022-10-17T07:50:23;17.90;97.00
31038;DHT22;17702;47.590;7.666;2022-10-17T07:52:49;18.00;97.20
31038;DHT22;17702;47.590;7.666;2022-10-17T07:55:15;18.10;96.80
31038;DHT22;17702;47.590;7.666;2022-10-17T07:57:40;18.20;96.50
31038;DHT22;17702;47.590;7.666;2022-10-17T08:00:06;18.30;96.60
31038;DHT22;17702;47.590;7.666;2022-10-17T08:02:32;18.40;96.10
31038;DHT22;17702;47.590;7.666;2022-10-17T08:04:57;18.50;96.30
31038;DHT22;17702;47.590;7.666;2022-10-17T08:07:23;18.60;96.10
31038;DHT22;17702;47.590;7.666;2022-10-17T08:09:48;18.70;96.20
31038;DHT22;17702;47.590;7.666;2022-10-17T08:12:14;18.80;95.90
31038;DHT22;17702;47.590;7.666;2022-10-17T08:14:40;18.90;95.70
31038;DHT22;17702;47.590;7.666;2022-10-17T08:17:05;19.00;95.40
31038;DHT22;17702;47.590;7.666;2022-10-17T08:19:31;19.00;94.90
31038;DHT22;17702;47.590;7.666;2022-10-17T08:21:56;19.10;94.70
31038;DHT22;17702;47.590;7.666;2022-10-17T08:24:23;19.10;94.50
31038;DHT22;17702;47.590;7.666;2022-10-17T08:26:49;19.20;94.50
31038;DHT22;17702;47.590;7.666;2022-10-17T08:29:14;19.30;94.70
31038;DHT22;17702;47.590;7.666;2022-10-17T08:31:40;19.40;94.70
31038;DHT22;17702;47.590;7.666;2022-10-17T08:34:06;19.50;94.30
31038;DHT22;17702;47.590;7.666;2022-10-17T08:36:31;19.60;94.20
31038;DHT22;17702;47.590;7.666;2022-10-17T08:38:57;19.70;93.90
31038;DHT22;17702;47.590;7.666;2022-10-17T08:46:35;19.90;93.50
31038;DHT22;17702;47.590;7.666;2022-10-17T08:49:03;20.10;93.40
31038;DHT22;17702;47.590;7.666;2022-10-17T08:51:31;20.20;93.20
31038;DHT22;17702;47.590;7.666;2022-10-17T08:56:43;20.40;92.00
31038;DHT22;17702;47.590;7.666;2022-10-17T08:59:10;20.40;92.90
31038;DHT22;17702;47.590;7.666;2022-10-17T09:01:41;20.50;92.60
31038;DHT22;17702;47.590;7.666;2022-10-17T09:06:43;20.70;92.30
31038;DHT22;17702;47.590;7.666;2022-10-17T09:12:09;20.80;90.90
31038;DHT22;17702;47.590;7.666;2022-10-17T09:17:14;21.10;91.30
31038;DHT22;17702;47.590;7.666;2022-10-17T09:19:44;21.20;91.00
31038;DHT22;17702;47.590;7.666;2022-10-17T09:22:12;21.30;90.80
31038;DHT22;17702;47.590;7.666;2022-10-17T09:24:48;21.40;90.10
31038;DHT22;17702;47.590;7.666;2022-10-17T09:27:24;21.50;90.00
31038;DHT22;17702;47.590;7.666;2022-10-17T09:29:54;21.60;90.20
31038;DHT22;17702;47.590;7.666;2022-10-17T09:32:25;21.70;88.90
31038;DHT22;17702;47.590;7.666;2022-10-17T09:34:51;21.80;87.00
31038;DHT22;17702;47.590;7.666;2022-10-17T09:37:17;21.80;87.30
31038;DHT22;17702;47.590;7.666;2022-10-17T09:39:43;21.90;86.10
31038;DHT22;17702;47.590;7.666;2022-10-17T09:42:14;22.00;87.30
31038;DHT22;17702;47.590;7.666;2022-10-17T09:47:24;22.20;85.30
31038;DHT22;17702;47.590;7.666;2022-10-17T09:49:52;22.30;83.80
31038;DHT22;17702;47.590;7.666;2022-10-17T09:54:53;22.20;84.30
31038;DHT22;17702;47.590;7.666;2022-10-17T09:57:19;22.10;83.50
31038;DHT22;17702;47.590;7.666;2022-10-17T09:59:58;22.00;84.30
31038;DHT22;17702;47.590;7.666;2022-10-17T10:02:25;21.90;85.30
31038;DHT22;17702;47.590;7.666;2022-10-17T10:04:58;21.90;84.10
31038;DHT22;17702;47.590;7.666;2022-10-17T10:07:24;22.00;86.30
31038;DHT22;17702;47.590;7.666;2022-10-17T10:09:50;22.10;85.30
31038;DHT22;17702;47.590;7.666;2022-10-17T10:12:19;22.30;85.00
31038;DHT22;17702;47.590;7.666;2022-10-17T10:14:45;22.40;85.00
31038;DHT22;17702;47.590;7.666;2022-10-17T10:25:37;23.00;82.30
31038;DHT22;17702;47.590;7.666;2022-10-17T10:28:13;23.00;82.50
31038;DHT22;17702;47.590;7.666;2022-10-17T10:30:40;23.00;81.20
31038;DHT22;17702;47.590;7.666;2022-10-17T10:33:11;23.20;82.80
31038;DHT22;17702;47.590;7.666;2022-10-17T10:35:36;23.10;81.80
31038;DHT22;17702;47.590;7.666;2022-10-17T10:38:03;23.20;81.70
31038;DHT22;17702;47.590;7.666;2022-10-17T10:40:54;23.20;79.40
31038;DHT22;17702;47.590;7.666;2022-10-17T10:43:20;23.20;79.80
31038;DHT22;17702;47.590;7.666;2022-10-17T10:45:47;23.20;77.70
31038;DHT22;17702;47.590;7.666;2022-10-17T10:48:17;23.20;79.60
31038;DHT22;17702;47.590;7.666;2022-10-17T10:50:55;23.20;81.10
31038;DHT22;17702;47.590;7.666;2022-10-17T10:56:10;23.10;79.40
31038;DHT22;17702;47.590;7.666;2022-10-17T11:01:33;23.00;80.00
31038;DHT22;17702;47.590;7.666;2022-10-17T11:07:06;22.90;79.50
31038;DHT22;17702;47.590;7.666;2022-10-17T11:12:15;22.80;82.40
31038;DHT22;17702;47.590;7.666;2022-10-17T11:14:50;22.70;82.20
31038;DHT22;17702;47.590;7.666;2022-10-17T11:19:58;22.70;82.50
31038;DHT22;17702;47.590;7.666;2022-10-17T11:22:36;22.60;85.20
31038;DHT22;17702;47.590;7.666;2022-10-17T11:27:28;22.70;80.80
31038;DHT22;17702;47.590;7.666;2022-10-17T11:29:54;22.60;84.80
31038;DHT22;17702;47.590;7.666;2022-10-17T11:33:05;22.60;86.30
31038;DHT22;17702;47.590;7.666;2022-10-17T11:35:07;22.60;85.40
31038;DHT22;17702;47.590;7.666;2022-10-17T11:37:39;22.60;84.90
31038;DHT22;17702;47.590;7.666;2022-10-17T11:40:13;22.50;85.00
31038;DHT22;17702;47.590;7.666;2022-10-17T11:42:53;22.50;85.90
31038;DHT22;17702;47.590;7.666;2022-10-17T11:45:21;22.60;83.60
31038;DHT22;17702;47.590;7.666;2022-10-17T11:48:09;22.50;82.90
31038;DHT22;17702;47.590;7.666;2022-10-17T11:50:37;22.60;84.80
31038;DHT22;17702;47.590;7.666;2022-10-17T11:53:16;22.50;83.80
31038;DHT22;17702;47.590;7.666;2022-10-17T11:55:42;22.50;83.70
31038;DHT22;17702;47.590;7.666;2022-10-17T12:00:41;22.50;84.50
31038;DHT22;17702;47.590;7.666;2022-10-17T12:03:19;22.50;84.90
31038;DHT22;17702;47.590;7.666;2022-10-17T12:16:34;22.60;79.70
31038;DHT22;17702;47.590;7.666;2022-10-17T12:18:43;22.70;81.40
31038;DHT22;17702;47.590;7.666;2022-10-17T12:21:08;22.80;81.40
31038;DHT22;17702;47.590;7.666;2022-10-17T12:23:34;22.90;80.90
31038;DHT22;17702;47.590;7.666;2022-10-17T12:26:03;22.90;77.60
31038;DHT22;17702;47.590;7.666;2022-10-17T12:31:02;23.10;76.60
31038;DHT22;17702;47.590;7.666;2022-10-17T12:38:39;23.50;77.60
31038;DHT22;17702;47.590;7.666;2022-10-17T12:41:05;23.60;78.40
31038;DHT22;17702;47.590;7.666;2022-10-17T12:43:42;23.80;79.10
31038;DHT22;17702;47.590;7.666;2022-10-17T12:46:08;23.90;77.70
31038;DHT22;17702;47.590;7.666;2022-10-17T12:51:03;24.00;71.60
31038;DHT22;17702;47.590;7.666;2022-10-17T12:56:17;24.30;74.50
31038;DHT22;17702;47.590;7.666;2022-10-17T12:58:44;24.40;73.40
31038;DHT22;17702;47.590;7.666;2022-10-17T13:01:16;24.50;73.00
31038;DHT22;17702;47.590;7.666;2022-10-17T13:03:43;24.70;72.90
31038;DHT22;17702;47.590;7.666;2022-10-17T13:06:13;24.80;71.50
31038;DHT22;17702;47.590;7.666;2022-10-17T13:08:42;24.90;71.50
31038;DHT22;17702;47.590;7.666;2022-10-17T13:11:08;25.00;70.50
31038;DHT22;17702;47.590;7.666;2022-10-17T13:16:00;25.10;69.30
31038;DHT22;17702;47.590;7.666;2022-10-17T13:18:26;25.20;69.40
31038;DHT22;17702;47.590;7.666;2022-10-17T13:23:21;25.40;66.70
31038;DHT22;17702;47.590;7.666;2022-10-17T13:25:46;25.40;63.20
31038;DHT22;17702;47.590;7.666;2022-10-17T13:28:12;25.50;66.30
31038;DHT22;17702;47.590;7.666;2022-10-17T13:30:38;25.50;65.90
31038;DHT22;17702;47.590;7.666;2022-10-17T13:33:15;25.50;67.00
31038;DHT22;17702;47.590;7.666;2022-10-17T13:35:42;25.60;63.70
31038;DHT22;17702;47.590;7.666;2022-10-17T13:38:07;25.70;62.20
31038;DHT22;17702;47.590;7.666;2022-10-17T13:40:41;25.70;62.90
31038;DHT22;17702;47.590;7.666;2022-10-17T13:43:10;25.60;66.60
31038;DHT22;17702;47.590;7.666;2022-10-17T13:45:38;25.50;65.50
31038;DHT22;17702;47.590;7.666;2022-10-17T13:48:04;25.50;64.50
31038;DHT22;17702;47.590;7.666;2022-10-17T13:50:31;25.50;61.90
31038;DHT22;17702;47.590;7.666;2022-10-17T13:53:04;25.40;62.10
31038;DHT22;17702;47.590;7.666;2022-10-17T13:55:30;25.30;63.70
31038;DHT22;17702;47.590;7.666;2022-10-17T13:57:55;25.20;62.00
31038;DHT22;17702;47.590;7.666;2022-10-17T14:00:32;25.10;65.90
31038;DHT22;17702;47.590;7.666;2022-10-17T14:02:58;24.90;67.50
31038;DHT22;17702;47.590;7.666;2022-10-17T14:05:23;24.80;67.30
31038;DHT22;17702;47.590;7.666;2022-10-17T14:07:50;24.60;67.10
31038;DHT22;17702;47.590;7.666;2022-10-17T14:10:17;24.50;66.80
31038;DHT22;17702;47.590;7.666;2022-10-17T14:12:43;24.30;66.90
31038;DHT22;17702;47.590;7.666;2022-10-17T14:15:09;24.20;68.10
31038;DHT22;17702;47.590;7.666;2022-10-17T14:17:37;24.10;68.00
31038;DHT22;17702;47.590;7.666;2022-10-17T14:20:03;24.00;68.40
31038;DHT22;17702;47.590;7.666;2022-10-17T14:22:33;23.90;69.00
31038;DHT22;17702;47.590;7.666;2022-10-17T14:24:59;23.90;70.10
31038;DHT22;17702;47.590;7.666;2022-10-17T14:27:26;23.80;67.70
31038;DHT22;17702;47.590;7.666;2022-10-17T14:29:52;23.80;68.10
31038;DHT22;17702;47.590;7.666;2022-10-17T14:32:18;23.80;69.40
31038;DHT22;17702;47.590;7.666;2022-10-17T14:34:44;23.70;70.70
31038;DHT22;17702;47.590;7.666;2022-10-17T14:37:35;23.80;66.40
31038;DHT22;17702;47.590;7.666;2022-10-17T14:40:00;23.80;69.10
31038;DHT22;17702;47.590;7.666;2022-10-17T14:42:26;23.80;72.10
31038;DHT22;17702;47.590;7.666;2022-10-17T14:44:52;23.70;71.80
31038;DHT22;17702;47.590;7.666;2022-10-17T14:47:23;23.70;73.00
31038;DHT22;17702;47.590;7.666;2022-10-17T14:49:50;23.60;74.30
31038;DHT22;17702;47.590;7.666;2022-10-17T14:54:41;23.40;74.30
31038;DHT22;17702;47.590;7.666;2022-10-17T14:57:17;23.50;72.40
31038;DHT22;17702;47.590;7.666;2022-10-17T14:59:43;23.40;75.10
31038;DHT22;17702;47.590;7.666;2022-10-17T15:02:09;23.40;76.90
31038;DHT22;17702;47.590;7.666;2022-10-17T15:04:35;23.30;76.70
31038;DHT22;17702;47.590;7.666;2022-10-17T15:07:00;23.20;77.10
31038;DHT22;17702;47.590;7.666;2022-10-17T15:09:26;23.20;77.20
31038;DHT22;17702;47.590;7.666;2022-10-17T15:11:58;23.10;77.30
31038;DHT22;17702;47.590;7.666;2022-10-17T15:14:24;23.10;77.30
31038;DHT22;17702;47.590;7.666;2022-10-17T15:16:50;23.00;77.80
31038;DHT22;17702;47.590;7.666;2022-10-17T15:19:15;22.90;78.90
31038;DHT22;17702;47.590;7.666;2022-10-17T15:21:41;22.80;79.50
31038;DHT22;17702;47.590;7.666;2022-10-17T15:24:06;22.80;81.20
31038;DHT22;17702;47.590;7.666;2022-10-17T15:26:32;22.70;83.10
31038;DHT22;17702;47.590;7.666;2022-10-17T15:28:58;22.60;84.10
31038;DHT22;17702;47.590;7.666;2022-10-17T15:31:24;22.60;87.30
31038;DHT22;17702;47.590;7.666;2022-10-17T15:33:50;22.50;89.20
31038;DHT22;17702;47.590;7.666;2022-10-17T15:38:47;22.40;90.60
31038;DHT22;17702;47.590;7.666;2022-10-17T15:41:13;22.30;91.30
31038;DHT22;17702;47.590;7.666;2022-10-17T15:43:39;22.20;91.70
31038;DHT22;17702;47.590;7.666;2022-10-17T15:46:08;22.10;92.00
31038;DHT22;17702;47.590;7.666;2022-10-17T15:48:34;22.10;92.40
31038;DHT22;17702;47.590;7.666;2022-10-17T15:51:00;22.00;92.60
31038;DHT22;17702;47.590;7.666;2022-10-17T15:53:25;21.80;92.60
31038;DHT22;17702;47.590;7.666;2022-10-17T15:55:51;21.80;93.20
31038;DHT22;17702;47.590;7.666;2022-10-17T15:58:17;21.80;93.40
31038;DHT22;17702;47.590;7.666;2022-10-17T16:00:43;21.70;93.50
31038;DHT22;17702;47.590;7.666;2022-10-17T16:03:09;21.60;93.50
31038;DHT22;17702;47.590;7.666;2022-10-17T16:05:35;21.50;94.00
31038;DHT22;17702;47.590;7.666;2022-10-17T16:08:00;21.40;94.10
31038;DHT22;17702;47.590;7.666;2022-10-17T16:10:26;21.40;94.30
31038;DHT22;17702;47.590;7.666;2022-10-17T16:12:53;21.30;94.50
31038;DHT22;17702;47.590;7.666;2022-10-17T16:15:20;21.20;94.80
31038;DHT22;17702;47.590;7.666;2022-10-17T16:17:53;21.10;95.00
31038;DHT22;17702;47.590;7.666;2022-10-17T16:20:19;21.00;95.40
31038;DHT22;17702;47.590;7.666;2022-10-17T16:22:45;20.80;95.80
31038;DHT22;17702;47.590;7.666;2022-10-17T16:25:18;20.80;96.00
31038;DHT22;17702;47.590;7.666;2022-10-17T16:27:48;20.70;96.30
31038;DHT22;17702;47.590;7.666;2022-10-17T16:30:14;20.60;96.60
31038;DHT22;17702;47.590;7.666;2022-10-17T16:32:40;20.60;96.70
31038;DHT22;17702;47.590;7.666;2022-10-17T16:35:06;20.40;97.00
31038;DHT22;17702;47.590;7.666;2022-10-17T16:37:31;20.20;97.10
31038;DHT22;17702;47.590;7.666;2022-10-17T16:39:57;20.20;97.10
31038;DHT22;17702;47.590;7.666;2022-10-17T16:42:23;20.10;97.20
31038;DHT22;17702;47.590;7.666;2022-10-17T16:44:48;20.00;97.40
31038;DHT22;17702;47.590;7.666;2022-10-17T16:47:14;20.00;97.20
31038;DHT22;17702;47.590;7.666;2022-10-17T16:49:40;19.90;97.20
31038;DHT22;17702;47.590;7.666;2022-10-17T16:52:05;19.80;97.40
31038;DHT22;17702;47.590;7.666;2022-10-17T16:54:31;19.70;97.50
31038;DHT22;17702;47.590;7.666;2022-10-17T16:56:58;19.60;97.70
31038;DHT22;17702;47.590;7.666;2022-10-17T16:59:24;19.50;97.70
31038;DHT22;17702;47.590;7.666;2022-10-17T17:01:49;19.60;97.50
31038;DHT22;17702;47.590;7.666;2022-10-17T17:04:15;19.40;97.80
31038;DHT22;17702;47.590;7.666;2022-10-17T17:06:40;19.30;97.90
31038;DHT22;17702;47.590;7.666;2022-10-17T17:09:06;19.30;97.90
31038;DHT22;17702;47.590;7.666;2022-10-17T17:11:33;19.20;98.20
31038;DHT22;17702;47.590;7.666;2022-10-17T17:13:59;19.10;98.20
31038;DHT22;17702;47.590;7.666;2022-10-17T17:16:26;19.00;98.30
31038;DHT22;17702;47.590;7.666;2022-10-17T17:18:55;19.00;98.40
31038;DHT22;17702;47.590;7.666;2022-10-17T17:21:21;18.90;98.30
31038;DHT22;17702;47.590;7.666;2022-10-17T17:23:47;18.90;98.40
31038;DHT22;17702;47.590;7.666;2022-10-17T17:26:17;18.80;98.60
31038;DHT22;17702;47.590;7.666;2022-10-17T17:28:43;18.80;98.60
31038;DHT22;17702;47.590;7.666;2022-10-17T17:31:09;18.80;98.60